CheckWX is a tool to help pilots better visualize weather data.  It is not intended as a substitute for an official pre-flight weather briefing.

12:16:47 UTC

PAGY TAF
Skagway Airport
Skagway, Alaska, USA
PAGY 241138Z 2412/2512 21003KT P6SM VCSH SCT025 OVC050 TEMPO 2412/2416 6SM -SHRA FM242000 21007KT P6SM VCSH BKN050 FM250000 21014KT P6SM SCT050 BKN100 AMD LTD TO CLD VIS AND WIND

Jun-24@
12:00 UTC

Jun-24 @ 12:00 UTC

Jun-24@
20:00 UTC

Jun-24 @ 20:00 UTC

PAGY 241138Z 2412/2512 21003KT P6SM VCSH SCT025 OVC050
Wind
  • 210° at 3 KTS
Cloud Levels
  • Scattered at 2,500' AGL
  • Overcast at 5,000' AGL

Jun-24@
12:00 UTC

Jun-24 @ 12:00 UTC

Jun-24@
16:00 UTC

Jun-24 @ 16:00 UTC

TEMPO 2412/2416 6SM -SHRA

Temporary

Temporary Changes expected for less than half the time period

Conditions
Light Rain

Jun-24@
20:00 UTC

Jun-24 @ 20:00 UTC

Jun-25@
00:00 UTC

Jun-25 @ 00:00 UTC

FM242000 21007KT P6SM VCSH BKN050

From

From Standard forecast or significant change

Wind
  • 210° at 7 KTS
Cloud Levels
  • Broken at 5,000' AGL

Jun-25@
00:00 UTC

Jun-25 @ 00:00 UTC

Jun-25@
12:00 UTC

Jun-25 @ 12:00 UTC

FM250000 21014KT P6SM SCT050 BKN100 AMD LTD TO CLD VIS AND WIND

From

From Standard forecast or significant change

Wind
  • 210° at 14 KTS
Cloud Levels
  • Scattered at 5,000' AGL
  • Broken at 10,000' AGL